Time;durP1;ratioP1;P1;durP2;ratioP2;P2;SDS_P1;SDS_P2;PMS_P1;PMS_P2;Temp;Humidity;BMP_temperature;BMP_pressure;BME280_temperature;BME280_humidity;BME280_pressure;Samples;Min_cycle;Max_cycle;Signal;HPM_P1;HPM_P2
2021/07/23 00:02:24;;;;;;;8.38;6.75;;;;;;;19.64;67.04;100482.75;5036291;28;20113;-62
2021/07/23 00:04:49;;;;;;;10.57;6.90;;;;;;;19.61;67.13;100477.97;5035995;28;20320;-63
2021/07/23 00:07:14;;;;;;;12.40;6.57;;;;;;;19.59;66.99;100475.59;5036052;28;20440;-62
2021/07/23 00:09:40;;;;;;;10.77;7.05;;;;;;;19.56;67.63;100478.59;5036017;28;20024;-62
2021/07/23 00:12:06;;;;;;;16.00;8.02;;;;;;;19.55;67.18;100480.63;5035876;28;20029;-63
2021/07/23 00:14:31;;;;;;;13.60;7.28;;;;;;;19.54;66.70;100483.94;5035898;28;20030;-63
2021/07/23 00:16:57;;;;;;;11.80;7.30;;;;;;;19.55;66.47;100480.63;5035825;28;20022;-62
2021/07/23 00:19:22;;;;;;;13.00;7.60;;;;;;;19.58;65.89;100490.31;5035815;28;20021;-64
2021/07/23 00:21:48;;;;;;;12.63;7.53;;;;;;;19.60;65.63;100482.09;5035661;28;20333;-64
2021/07/23 00:24:13;;;;;;;9.98;7.43;;;;;;;19.61;65.49;100484.47;5035961;28;20021;-64
2021/07/23 00:26:38;;;;;;;11.95;7.57;;;;;;;19.66;65.17;100486.72;5035935;28;20441;-63
2021/07/23 00:29:04;;;;;;;9.93;7.47;;;;;;;19.72;64.96;100478.38;5035624;28;20083;-63
2021/07/23 00:31:29;;;;;;;9.88;6.70;;;;;;;19.74;64.80;100475.88;5035667;28;20033;-62
2021/07/23 00:33:54;;;;;;;12.68;7.47;;;;;;;19.75;64.60;100478.28;5035639;28;20157;-63
2021/07/23 00:36:20;;;;;;;10.32;7.30;;;;;;;19.71;64.88;100479.63;5035394;28;20096;-65
2021/07/23 00:38:46;;;;;;;11.88;7.20;;;;;;;19.61;65.27;100483.69;5033074;28;20028;-64
2021/07/23 00:41:11;;;;;;;8.50;7.03;;;;;;;19.51;65.07;100485.66;5035806;28;20021;-65
2021/07/23 00:43:36;;;;;;;9.80;6.85;;;;;;;19.45;65.46;100476.91;5035665;28;20095;-63
2021/07/23 00:46:02;;;;;;;9.90;7.05;;;;;;;19.45;65.45;100484.66;5035233;28;20368;-65
2021/07/23 00:48:28;;;;;;;9.10;7.07;;;;;;;19.42;65.62;100482.69;5034479;28;20053;-64
2021/07/23 00:50:54;;;;;;;11.07;7.05;;;;;;;19.38;65.83;100477.13;5035238;28;20053;-65
2021/07/23 00:53:20;;;;;;;13.52;7.72;;;;;;;19.34;66.39;100481.38;5035725;28;20044;-65
2021/07/23 00:55:54;;;;;;;8.35;6.75;;;;;;;19.29;67.03;100471.34;5035245;28;20032;-65
2021/07/23 00:58:21;;;;;;;9.57;7.65;;;;;;;19.23;67.19;100473.19;5035485;28;20087;-60
2021/07/23 01:00:47;;;;;;;10.90;7.63;;;;;;;19.17;67.31;100472.16;5035345;28;20024;-61
2021/07/23 01:03:13;;;;;;;11.55;7.00;;;;;;;19.11;67.84;100474.03;5035422;28;20029;-62
2021/07/23 01:05:38;;;;;;;10.30;7.25;;;;;;;19.08;68.20;100470.03;5035152;28;20026;-65
2021/07/23 01:08:04;;;;;;;12.00;8.23;;;;;;;19.03;67.77;100469.84;5037689;28;20321;-64
2021/07/23 01:10:30;;;;;;;9.55;7.55;;;;;;;18.97;67.78;100468.81;5039736;28;20026;-64
2021/07/23 01:12:55;;;;;;;10.13;8.05;;;;;;;18.94;67.80;100472.59;5039443;28;20029;-64
2021/07/23 01:15:21;;;;;;;10.80;7.85;;;;;;;18.91;68.13;100465.75;5039225;28;20025;-63
2021/07/23 01:17:46;;;;;;;11.10;7.55;;;;;;;18.85;68.58;100467.56;5039260;28;20029;-64
2021/07/23 01:20:20;;;;;;;13.68;8.18;;;;;;;18.80;68.84;100460.41;5038783;28;20082;-64
2021/07/23 01:22:47;;;;;;;10.45;8.18;;;;;;;18.88;68.14;100460.16;5039341;28;20314;-64
2021/07/23 01:25:14;;;;;;;17.30;8.43;;;;;;;18.93;68.37;100468.16;5037790;28;20401;-64
2021/07/23 01:27:46;;;;;;;11.40;7.53;;;;;;;18.90;68.16;100463.34;5039512;28;20033;-62
2021/07/23 01:30:14;;;;;;;18.08;8.60;;;;;;;18.84;68.30;100465.97;5038748;28;20122;-62
2021/07/23 01:32:39;;;;;;;13.32;7.75;;;;;;;18.84;68.27;100457.44;5039415;28;20116;-60
2021/07/23 01:35:06;;;;;;;13.18;7.72;;;;;;;18.85;68.08;100450.50;5038797;28;20100;-63
2021/07/23 01:37:33;;;;;;;13.48;7.60;;;;;;;18.84;68.31;100455.38;5038786;28;20091;-62
2021/07/23 01:39:59;;;;;;;11.68;8.10;;;;;;;18.81;67.91;100452.66;5038882;28;20463;-64
2021/07/23 01:42:27;;;;;;;13.43;8.20;;;;;;;18.76;68.06;100448.34;5038702;28;20032;-64
2021/07/23 01:44:52;;;;;;;11.13;8.13;;;;;;;18.71;68.11;100456.66;5038990;28;20055;-64
2021/07/23 01:47:17;;;;;;;16.52;8.30;;;;;;;18.66;68.35;100455.19;5038442;28;20021;-64
2021/07/23 01:49:43;;;;;;;11.98;8.18;;;;;;;18.62;68.74;100454.50;5038522;28;20479;-64
2021/07/23 01:52:08;;;;;;;9.43;7.63;;;;;;;18.61;68.73;100452.88;5037622;28;20029;-64
2021/07/23 01:54:34;;;;;;;16.92;8.57;;;;;;;18.61;69.23;100441.50;5038359;28;20029;-63
2021/07/23 01:56:59;;;;;;;10.65;8.07;;;;;;;18.63;69.29;100438.25;5038710;28;20040;-63
2021/07/23 01:59:24;;;;;;;14.05;8.55;;;;;;;18.66;68.96;100448.72;5038495;28;20029;-63
2021/07/23 02:01:50;;;;;;;11.95;8.90;;;;;;;18.70;68.86;100441.63;5038418;28;20057;-63
2021/07/23 02:04:15;;;;;;;12.85;8.45;;;;;;;18.72;68.70;100441.97;5038130;28;20037;-64
2021/07/23 02:06:40;;;;;;;13.18;8.30;;;;;;;18.71;68.63;100446.09;5037022;28;20449;-64
2021/07/23 02:09:06;;;;;;;10.38;8.13;;;;;;;18.69;68.66;100436.41;5037382;28;20029;-64
2021/07/23 02:11:31;;;;;;;9.70;7.63;;;;;;;18.64;68.93;100437.00;5038024;28;20075;-63
2021/07/23 02:14:03;;;;;;;11.98;8.02;;;;;;;18.62;69.08;100436.59;5038352;28;20032;-65
2021/07/23 02:16:29;;;;;;;11.85;8.30;;;;;;;18.59;69.17;100438.31;5038347;28;20021;-64
2021/07/23 02:18:54;;;;;;;9.88;8.05;;;;;;;18.54;68.99;100447.41;5036573;28;20155;-63
2021/07/23 02:21:19;;;;;;;10.40;7.95;;;;;;;18.49;69.10;100439.47;5038059;28;20052;-64
2021/07/23 02:23:45;;;;;;;11.30;8.02;;;;;;;18.44;69.17;100437.19;5038067;28;20036;-64
2021/07/23 02:26:21;;;;;;;13.02;7.53;;;;;;;18.38;69.45;100439.03;5036583;28;20021;-64
2021/07/23 02:28:48;;;;;;;9.88;7.85;;;;;;;18.30;69.26;100435.59;5053712;28;20039;-63
2021/07/23 02:31:13;;;;;;;8.85;7.70;;;;;;;18.26;69.55;100434.91;5057927;28;20088;-63
2021/07/23 02:33:39;;;;;;;12.23;9.00;;;;;;;18.27;69.57;100435.69;5057737;28;20028;-62
2021/07/23 02:36:05;;;;;;;14.18;8.35;;;;;;;18.23;69.74;100438.66;5057561;28;20043;-60
2021/07/23 02:38:31;;;;;;;13.85;8.55;;;;;;;18.20;69.79;100433.88;5053780;28;20021;-61
2021/07/23 02:40:56;;;;;;;13.25;7.93;;;;;;;18.16;69.62;100431.16;5047781;28;20021;-61
2021/07/23 02:43:22;;;;;;;9.85;8.15;;;;;;;18.14;69.67;100432.88;5056285;28;20025;-62
2021/07/23 02:45:48;;;;;;;9.82;7.78;;;;;;;18.10;69.83;100435.81;5057888;28;20040;-61
2021/07/23 02:48:13;;;;;;;12.30;8.73;;;;;;;18.06;69.88;100429.41;5057276;28;20060;-61
2021/07/23 02:50:38;;;;;;;12.95;8.20;;;;;;;18.02;70.02;100428.72;5057469;28;20044;-62
2021/07/23 02:53:04;;;;;;;9.45;8.00;;;;;;;17.99;69.82;100432.50;5057523;28;20361;-63
2021/07/23 02:55:30;;;;;;;12.45;8.55;;;;;;;17.98;70.20;100438.63;5057214;28;20052;-61
2021/07/23 02:57:55;;;;;;;10.18;7.90;;;;;;;17.94;70.15;100433.06;5057574;28;20067;-63
2021/07/23 03:00:22;;;;;;;11.55;8.02;;;;;;;17.89;70.46;100433.63;5057202;28;20021;-62
2021/07/23 03:02:48;;;;;;;9.52;7.25;;;;;;;17.82;70.97;100433.84;5057457;28;20028;-61
2021/07/23 03:05:13;;;;;;;10.85;8.77;;;;;;;17.77;71.44;100434.38;5057156;28;20028;-63
2021/07/23 03:07:38;;;;;;;12.63;7.93;;;;;;;17.73;71.26;100430.84;5056112;28;20048;-61
2021/07/23 03:10:04;;;;;;;12.45;8.68;;;;;;;17.71;71.38;100433.34;5057172;28;20017;-64
2021/07/23 03:12:29;;;;;;;11.77;8.35;;;;;;;17.68;71.51;100429.34;5056802;28;20025;-63
2021/07/23 03:14:55;;;;;;;10.45;8.40;;;;;;;17.69;71.23;100433.78;5057559;28;20401;-64
2021/07/23 03:17:20;;;;;;;12.25;8.85;;;;;;;17.72;71.20;100426.41;5056691;28;20028;-61
2021/07/23 03:19:45;;;;;;;11.07;9.05;;;;;;;17.72;70.95;100432.88;5056842;28;20029;-61
2021/07/23 03:22:11;;;;;;;13.40;9.20;;;;;;;17.74;70.89;100438.13;5056917;28;20029;-63
2021/07/23 03:24:36;;;;;;;14.55;8.30;;;;;;;17.74;70.90;100438.13;5056812;28;20025;-64
2021/07/23 03:27:02;;;;;;;14.52;8.95;;;;;;;17.71;70.90;100431.28;5056813;28;20031;-62
2021/07/23 03:29:27;;;;;;;11.30;8.30;;;;;;;17.67;70.83;100429.78;5056647;28;20036;-61
2021/07/23 03:31:52;;;;;;;13.07;8.27;;;;;;;17.63;70.81;100429.88;5056425;28;20096;-65
2021/07/23 03:34:18;;;;;;;11.32;7.60;;;;;;;17.58;70.90;100431.25;5056560;28;20020;-62
2021/07/23 03:36:43;;;;;;;14.60;8.35;;;;;;;17.58;70.83;100427.59;5056346;28;20075;-61
2021/07/23 03:39:09;;;;;;;17.42;8.57;;;;;;;17.55;70.92;100435.00;5056556;28;20082;-63
2021/07/23 03:41:34;;;;;;;9.88;8.43;;;;;;;17.53;71.46;100439.50;5056503;28;20074;-61
2021/07/23 03:43:59;;;;;;;10.82;7.85;;;;;;;17.48;72.12;100438.00;5056414;28;20043;-63
2021/07/23 03:46:25;;;;;;;14.95;8.32;;;;;;;17.47;72.55;100441.31;5056280;28;20400;-64
2021/07/23 03:48:53;;;;;;;10.25;8.48;;;;;;;17.50;71.97;100437.56;5056363;28;20489;-64
2021/07/23 03:51:19;;;;;;;11.15;7.90;;;;;;;17.56;71.63;100439.41;5056229;28;20413;-62
2021/07/23 03:53:44;;;;;;;13.70;8.88;;;;;;;17.59;71.20;100444.19;5056219;28;20067;-63
2021/07/23 03:56:10;;;;;;;14.88;8.85;;;;;;;17.58;71.21;100448.28;5056346;28;20032;-65
2021/07/23 03:58:36;;;;;;;12.38;8.10;;;;;;;17.58;71.43;100436.94;5056399;28;20385;-64
2021/07/23 04:01:05;;;;;;;11.25;8.07;;;;;;;17.60;71.36;100440.13;5055980;28;20022;-63
2021/07/23 04:03:34;;;;;;;9.77;8.10;;;;;;;17.60;71.72;100440.13;5056063;28;20031;-62
2021/07/23 04:06:00;;;;;;;11.50;8.68;;;;;;;17.60;71.50;100437.28;5055014;28;20036;-62
2021/07/23 04:08:26;;;;;;;11.70;8.02;;;;;;;17.63;71.49;100441.25;5055849;28;20028;-63
2021/07/23 04:10:51;;;;;;;14.52;8.55;;;;;;;17.68;71.76;100449.25;5056031;28;20036;-62
2021/07/23 04:13:16;;;;;;;12.63;7.95;;;;;;;17.70;71.69;100443.91;5056265;28;20025;-61
2021/07/23 04:15:42;;;;;;;14.10;8.38;;;;;;;17.73;72.07;100428.00;5055435;28;20017;-63
2021/07/23 04:18:07;;;;;;;15.48;8.68;;;;;;;17.77;71.60;100435.16;5055867;28;20028;-64
2021/07/23 04:20:33;;;;;;;15.40;8.77;;;;;;;17.81;72.26;100435.88;5045924;28;20036;-63
2021/07/23 04:22:59;;;;;;;16.98;8.85;;;;;;;17.86;72.54;100434.53;5044196;28;20025;-63
2021/07/23 04:25:24;;;;;;;16.77;9.63;;;;;;;17.92;72.00;100441.25;5054613;28;20029;-65
2021/07/23 04:27:49;;;;;;;18.10;9.00;;;;;;;18.00;71.53;100439.78;5043440;28;20028;-64
2021/07/23 04:30:16;;;;;;;14.60;9.00;;;;;;;18.11;71.52;100448.00;5054466;28;20070;-64
2021/07/23 04:32:42;;;;;;;11.77;8.82;;;;;;;18.19;71.01;100449.34;5055842;28;20071;-60
2021/07/23 04:35:08;;;;;;;18.83;9.43;;;;;;;18.27;70.93;100449.91;5055489;28;20025;-64
2021/07/23 04:37:33;;;;;;;14.02;8.73;;;;;;;18.32;70.78;100440.81;5055403;28;20043;-64
2021/07/23 04:39:59;;;;;;;14.75;9.02;;;;;;;18.39;70.64;100444.25;5055405;28;20424;-64
2021/07/23 04:42:24;;;;;;;21.10;9.70;;;;;;;18.47;70.71;100453.34;5055000;28;20324;-64
2021/07/23 04:44:50;;;;;;;12.93;8.18;;;;;;;18.53;70.49;100448.69;5055244;28;20067;-64
2021/07/23 04:47:15;;;;;;;17.40;9.32;;;;;;;18.61;70.00;100450.03;5038252;28;20029;-63
2021/07/23 04:49:40;;;;;;;14.50;8.75;;;;;;;18.71;70.19;100434.69;5040703;28;20049;-62
2021/07/23 04:52:06;;;;;;;15.05;9.00;;;;;;;18.80;69.75;100437.63;5052807;28;20054;-64
2021/07/23 04:54:31;;;;;;;20.20;9.10;;;;;;;18.90;69.32;100443.41;5047538;28;20029;-64
2021/07/23 04:56:58;;;;;;;17.67;9.25;;;;;;;18.99;69.25;100443.53;5055351;28;20028;-64
2021/07/23 04:59:23;;;;;;;11.27;8.18;;;;;;;19.08;69.48;100437.91;5045289;28;20025;-63
2021/07/23 05:01:48;;;;;;;12.23;8.13;;;;;;;19.17;69.15;100443.69;5051217;28;20070;-63
2021/07/23 05:04:15;;;;;;;10.02;8.20;;;;;;;19.27;69.01;100436.81;5055326;28;20052;-61
2021/07/23 05:06:41;;;;;;;14.30;8.00;;;;;;;19.35;68.73;100429.59;5055168;28;20076;-63
2021/07/23 05:09:06;;;;;;;10.02;7.90;;;;;;;19.47;68.69;100438.56;5055163;28;20025;-63
2021/07/23 05:11:33;;;;;;;15.27;8.13;;;;;;;19.55;68.54;100437.06;5055264;28;20110;-64
2021/07/23 05:14:00;;;;;;;13.35;8.70;;;;;;;19.64;68.51;100437.94;5054964;28;20104;-63
2021/07/23 05:16:26;;;;;;;12.63;7.28;;;;;;;19.74;67.81;100441.66;5055166;28;20040;-64
2021/07/23 05:18:51;;;;;;;9.52;7.45;;;;;;;19.82;67.81;100442.19;5053855;28;20021;-62
2021/07/23 05:21:17;;;;;;;11.43;7.00;;;;;;;19.90;67.64;100450.00;5055069;28;20032;-62
2021/07/23 05:23:43;;;;;;;14.63;7.85;;;;;;;20.01;67.37;100433.28;5053960;28;20320;-61
2021/07/23 05:26:09;;;;;;;10.05;7.43;;;;;;;20.12;67.13;100437.75;5054950;28;20032;-63
2021/07/23 05:28:35;;;;;;;9.80;7.28;;;;;;;20.21;66.35;100441.44;5054989;28;20052;-62
2021/07/23 05:31:00;;;;;;;10.07;7.53;;;;;;;20.31;66.59;100436.59;5054937;28;20067;-63
2021/07/23 05:33:26;;;;;;;11.63;6.95;;;;;;;20.41;66.12;100437.44;5054877;28;20036;-63
2021/07/23 05:35:51;;;;;;;10.77;7.35;;;;;;;20.50;65.77;100446.03;5054880;28;20021;-63
2021/07/23 05:38:16;;;;;;;11.02;7.45;;;;;;;20.58;64.53;100439.59;5049936;28;20033;-63
2021/07/23 05:40:42;;;;;;;9.73;7.07;;;;;;;20.66;64.05;100446.59;5045184;28;20029;-64
2021/07/23 05:43:08;;;;;;;11.95;7.05;;;;;;;20.76;63.72;100440.88;5050846;28;20332;-63
2021/07/23 05:45:37;;;;;;;13.65;6.70;;;;;;;20.84;63.02;100445.06;5051658;28;20017;-65
2021/07/23 05:48:03;;;;;;;13.35;7.30;;;;;;;20.91;62.92;100448.41;5054510;28;20064;-65
2021/07/23 05:50:28;;;;;;;10.30;7.45;;;;;;;21.02;63.32;100447.94;5054862;28;20107;-63
2021/07/23 05:52:55;;;;;;;11.32;6.72;;;;;;;21.09;62.51;100447.66;5053596;28;20409;-64
2021/07/23 05:55:21;;;;;;;13.68;6.18;;;;;;;21.18;62.38;100444.78;5058080;28;20020;-62
2021/07/23 05:57:47;;;;;;;9.15;6.32;;;;;;;21.29;62.80;100445.13;5058722;28;20021;-64
2021/07/23 06:00:12;;;;;;;10.10;6.78;;;;;;;21.40;60.37;100449.59;5058326;28;20073;-63
2021/07/23 06:02:38;;;;;;;10.73;6.22;;;;;;;21.45;60.49;100452.63;5058646;28;20427;-61
2021/07/23 06:05:04;;;;;;;7.35;5.68;;;;;;;21.53;60.71;100447.38;5058125;28;20435;-61
2021/07/23 06:07:29;;;;;;;13.55;6.13;;;;;;;21.63;59.44;100446.09;5058304;28;20025;-61
2021/07/23 06:09:55;;;;;;;8.50;5.55;;;;;;;21.72;59.77;100453.88;5058339;28;20032;-64
2021/07/23 06:12:20;;;;;;;11.68;6.50;;;;;;;21.82;58.75;100441.94;5056925;28;20036;-63
2021/07/23 06:14:45;;;;;;;8.93;6.10;;;;;;;21.89;57.68;100450.19;5058325;28;20025;-62
2021/07/23 06:17:11;;;;;;;11.07;5.75;;;;;;;22.00;58.53;100451.78;5058111;28;20024;-63
2021/07/23 06:19:37;;;;;;;8.38;6.05;;;;;;;22.07;57.73;100452.25;5058163;28;20409;-62
2021/07/23 06:22:04;;;;;;;7.88;5.80;;;;;;;22.14;58.05;100448.25;5058115;28;20059;-63
2021/07/23 06:24:29;;;;;;;10.52;5.68;;;;;;;22.27;57.55;100454.59;5057878;28;20043;-65
2021/07/23 06:26:54;;;;;;;16.52;6.28;;;;;;;22.37;57.94;100453.25;5050239;28;20033;-64
2021/07/23 06:29:20;;;;;;;9.02;5.68;;;;;;;22.47;58.20;100449.09;5042491;28;20056;-64
2021/07/23 06:31:45;;;;;;;11.60;6.28;;;;;;;22.57;56.84;100449.06;5048495;28;20431;-63
2021/07/23 06:34:10;;;;;;;10.75;6.05;;;;;;;22.64;57.39;100449.50;5054427;28;20428;-65
2021/07/23 06:36:36;;;;;;;9.60;6.35;;;;;;;22.71;56.54;100451.19;5057523;28;20404;-63
2021/07/23 06:39:01;;;;;;;9.98;6.70;;;;;;;22.79;57.00;100446.72;5048143;28;20443;-63
2021/07/23 06:41:26;;;;;;;8.55;5.70;;;;;;;22.90;57.22;100455.59;5057514;28;20431;-63
2021/07/23 06:43:52;;;;;;;9.68;5.93;;;;;;;23.00;56.87;100448.50;5057687;28;20062;-64
2021/07/23 06:46:17;;;;;;;9.93;6.10;;;;;;;23.08;56.16;100448.97;5057343;28;20043;-64
2021/07/23 06:48:42;;;;;;;11.82;6.80;;;;;;;23.13;56.33;100445.41;5057843;28;20052;-63
2021/07/23 06:51:08;;;;;;;12.05;6.03;;;;;;;23.17;56.30;100450.97;5057506;28;20032;-64
2021/07/23 06:53:33;;;;;;;6.57;5.63;;;;;;;23.24;55.76;100451.38;5056984;28;20469;-63
2021/07/23 06:55:59;;;;;;;11.63;5.80;;;;;;;23.33;56.42;100448.47;5037412;28;20033;-62
2021/07/23 06:58:24;;;;;;;11.13;6.00;;;;;;;23.43;55.38;100452.81;5044118;28;20036;-62
2021/07/23 07:00:49;;;;;;;7.32;5.15;;;;;;;23.52;55.53;100448.28;5036816;28;20314;-60
2021/07/23 07:03:15;;;;;;;9.23;5.90;;;;;;;23.57;54.66;100457.06;5036046;28;20049;-60
2021/07/23 07:05:40;;;;;;;10.70;6.40;;;;;;;23.65;54.67;100451.72;5032729;28;20044;-63
2021/07/23 07:08:06;;;;;;;10.27;5.72;;;;;;;23.69;55.30;100450.25;5035148;28;20544;-62
2021/07/23 07:10:31;;;;;;;9.85;5.53;;;;;;;23.76;53.94;100448.25;5035201;28;20025;-61
2021/07/23 07:12:58;;;;;;;13.13;6.38;;;;;;;23.81;53.73;100456.19;5037454;28;20029;-63
2021/07/23 07:15:24;;;;;;;10.02;5.55;;;;;;;23.88;53.69;100444.34;5036979;28;20029;-65
2021/07/23 07:17:56;;;;;;;7.28;5.63;;;;;;;23.87;52.37;100451.38;5037039;28;20287;-63
2021/07/23 07:20:22;;;;;;;6.93;5.57;;;;;;;23.90;52.36;100444.63;5036678;28;20405;-63
2021/07/23 07:22:47;;;;;;;6.47;4.78;;;;;;;23.97;52.79;100452.84;5032768;28;20029;-63
2021/07/23 07:25:12;;;;;;;8.65;5.28;;;;;;;24.01;52.43;100444.81;5038738;28;20026;-61
2021/07/23 07:27:38;;;;;;;12.27;5.78;;;;;;;24.10;52.00;100436.09;5036835;28;20112;-64
2021/07/23 07:30:04;;;;;;;10.02;5.47;;;;;;;24.19;52.75;100441.75;5033692;28;20103;-63
2021/07/23 07:32:29;;;;;;;8.98;5.05;;;;;;;24.27;52.60;100440.06;5035310;28;20336;-66
2021/07/23 07:34:55;;;;;;;7.47;5.50;;;;;;;24.39;53.48;100428.78;5041351;28;20428;-64
2021/07/23 07:37:20;;;;;;;10.00;4.82;;;;;;;24.49;52.53;100433.91;5039973;28;20052;-62
2021/07/23 07:39:45;;;;;;;7.93;5.13;;;;;;;24.57;50.82;100432.22;5049615;28;20413;-65
2021/07/23 07:42:11;;;;;;;9.20;5.15;;;;;;;24.65;50.44;100430.53;5056594;28;20092;-63
2021/07/23 07:44:36;;;;;;;7.28;5.32;;;;;;;24.72;51.41;100422.75;5055388;28;20025;-64
2021/07/23 07:47:02;;;;;;;7.25;5.30;;;;;;;24.77;50.71;100422.84;5056346;28;20025;-63
2021/07/23 07:49:27;;;;;;;7.25;5.13;;;;;;;24.83;50.53;100429.47;5033032;28;20342;-65
2021/07/23 07:51:53;;;;;;;6.90;4.75;;;;;;;24.89;50.19;100420.91;5039289;28;20016;-65
2021/07/23 07:54:18;;;;;;;11.60;5.25;;;;;;;24.93;50.22;100422.31;5056328;28;20405;-63
2021/07/23 07:56:44;;;;;;;7.63;5.22;;;;;;;25.01;50.25;100421.91;5049837;28;20075;-66
2021/07/23 07:59:09;;;;;;;7.45;5.00;;;;;;;25.05;50.41;100425.34;5030343;28;20071;-66
2021/07/23 08:01:35;;;;;;;8.57;4.85;;;;;;;25.05;50.11;100429.00;5032367;28;20026;-66
2021/07/23 08:04:00;;;;;;;12.82;5.18;;;;;;;25.12;49.56;100427.78;5038840;28;20079;-66
2021/07/23 08:06:35;;;;;;;7.28;4.72;;;;;;;25.20;50.18;100426.88;5039400;28;20040;-63
2021/07/23 08:09:05;;;;;;;5.50;4.80;;;;;;;25.30;50.69;100430.38;5047322;28;20025;-65
2021/07/23 08:11:32;;;;;;;9.48;5.10;;;;;;;25.38;49.10;100428.63;5050641;28;20033;-64
2021/07/23 08:13:57;;;;;;;8.25;5.38;;;;;;;25.42;nan;100425.53;5046532;28;20023;-67
2021/07/23 08:16:23;;;;;;;10.25;5.07;;;;;;;25.46;49.11;100424.00;5044138;28;20104;-63
2021/07/23 08:18:48;;;;;;;12.18;4.90;;;;;;;25.53;49.69;100412.09;5035720;28;20025;-63
2021/07/23 08:21:14;;;;;;;5.55;4.95;;;;;;;25.62;50.42;100416.09;5029477;28;20034;-64
2021/07/23 08:23:39;;;;;;;5.95;4.85;;;;;;;25.67;49.00;100413.28;5039278;28;20064;-65
2021/07/23 08:26:04;;;;;;;8.45;5.13;;;;;;;25.72;48.74;100418.31;5047178;28;20037;-62
2021/07/23 08:28:33;;;;;;;5.78;4.93;;;;;;;25.79;48.95;100423.63;5047952;28;20029;-61
2021/07/23 08:30:59;;;;;;;8.27;4.60;;;;;;;25.85;47.97;100418.72;5048474;28;20013;-63
2021/07/23 08:33:25;;;;;;;7.78;5.10;;;;;;;25.91;47.61;100423.75;5043114;28;20079;-62
2021/07/23 08:35:51;;;;;;;7.28;4.70;;;;;;;25.93;46.75;100419.06;5050218;28;20017;-59
2021/07/23 08:38:17;;;;;;;8.85;4.90;;;;;;;25.98;47.80;100418.31;5050509;28;20029;-65
2021/07/23 08:40:42;;;;;;;12.07;5.07;;;;;;;25.98;46.91;100424.06;5051007;28;20013;-65
2021/07/23 08:43:08;;;;;;;13.68;5.45;;;;;;;26.01;46.73;100425.13;5049466;28;20115;-63
2021/07/23 08:45:34;;;;;;;8.00;4.97;;;;;;;26.04;46.16;100424.16;5035890;28;20435;-63
2021/07/23 08:48:00;;;;;;;13.20;5.80;;;;;;;26.05;46.12;100414.19;5037400;28;20029;-65
2021/07/23 08:50:26;;;;;;;6.72;4.90;;;;;;;26.05;46.22;100423.63;5035048;28;20053;-62
2021/07/23 08:52:54;;;;;;;8.57;4.55;;;;;;;26.09;46.22;100418.44;5035657;28;20421;-62
2021/07/23 08:55:19;;;;;;;19.00;5.05;;;;;;;26.13;44.44;100415.31;5035082;28;20409;-64
2021/07/23 08:57:46;;;;;;;8.60;4.93;;;;;;;26.16;45.00;100415.06;5034161;28;20032;-64
2021/07/23 09:00:14;;;;;;;6.80;5.13;;;;;;;26.21;44.69;100410.66;5035044;28;20030;-65
2021/07/23 09:02:58;;;;;;;11.18;4.70;;;;;;;26.27;44.11;100413.56;5032996;28;20373;-63
2021/07/23 09:05:27;;;;;;;5.30;4.55;;;;;;;26.31;45.24;100417.03;5032548;28;20022;-62
2021/07/23 09:07:52;;;;;;;6.22;4.10;;;;;;;26.33;44.36;100408.66;5035084;28;20017;-63
2021/07/23 09:10:26;;;;;;;6.32;4.60;;;;;;;26.36;43.34;100396.16;5034877;28;20022;-63
2021/07/23 09:12:54;;;;;;;7.45;4.72;;;;;;;26.41;44.23;100398.28;5035202;28;20022;-67
2021/07/23 09:15:24;;;;;;;10.82;4.85;;;;;;;26.41;44.05;100398.28;5034642;28;20334;-64
2021/07/23 09:17:50;;;;;;;5.15;4.05;;;;;;;26.44;45.27;100397.25;5033812;28;20040;-63
2021/07/23 09:20:20;;;;;;;7.50;4.28;;;;;;;26.47;42.94;100399.88;5033925;28;20294;-63
2021/07/23 09:22:50;;;;;;;6.60;5.00;;;;;;;26.52;43.46;100386.81;5025648;28;20316;-65
2021/07/23 09:25:32;;;;;;;9.00;4.78;;;;;;;26.55;44.28;100377.13;5035059;28;20025;-64
2021/07/23 09:27:57;;;;;;;8.05;4.30;;;;;;;26.60;43.56;100387.94;5023439;28;20026;-64
2021/07/23 09:30:40;;;;;;;8.52;4.70;;;;;;;26.64;43.90;100388.47;5038289;28;20014;-64
2021/07/23 09:33:05;;;;;;;5.57;4.20;;;;;;;26.70;42.24;100383.53;5033990;28;20123;-63
2021/07/23 09:35:30;;;;;;;9.38;4.85;;;;;;;26.75;40.71;100394.31;5047699;28;20141;-73
2021/07/23 09:37:57;;;;;;;9.00;4.40;;;;;;;26.76;42.02;100390.13;5053866;28;20060;-63
2021/07/23 09:40:23;;;;;;;9.05;4.80;;;;;;;26.76;41.92;100401.66;5058480;28;20161;-64
2021/07/23 09:42:56;;;;;;;6.60;4.65;;;;;;;26.72;42.08;100385.91;5058495;28;20020;-64
2021/07/23 09:45:34;;;;;;;7.32;5.18;;;;;;;26.66;42.01;100387.97;5032062;28;20056;-65
2021/07/23 09:48:12;;;;;;;6.15;4.57;;;;;;;26.68;42.54;100379.59;5046075;28;20060;-64
2021/07/23 09:50:44;;;;;;;6.80;4.70;;;;;;;26.74;42.06;100378.31;5049745;28;20025;-66
2021/07/23 09:53:20;;;;;;;6.32;3.97;;;;;;;26.82;42.27;100374.94;5035650;28;20029;-64
2021/07/23 09:55:48;;;;;;;5.65;4.00;;;;;;;26.92;41.75;100377.09;5058385;28;20041;-64
2021/07/23 09:58:21;;;;;;;5.72;4.38;;;;;;;27.04;42.20;100369.31;5056279;28;20032;-61
2021/07/23 10:00:54;;;;;;;7.47;4.97;;;;;;;27.06;41.63;100372.44;5035626;28;20022;-62
2021/07/23 10:03:20;;;;;;;7.93;4.70;;;;;;;27.05;41.38;100370.88;5047564;28;20055;-63
2021/07/23 10:06:10;;;;;;;9.50;5.07;;;;;;;27.15;39.71;100369.38;5044309;28;20056;-63
2021/07/23 10:08:39;;;;;;;5.03;4.50;;;;;;;27.21;40.96;100366.50;5054137;28;20028;-63
2021/07/23 10:11:07;;;;;;;8.07;4.95;;;;;;;27.35;42.56;100368.34;5056201;28;20020;-65
2021/07/23 10:13:37;;;;;;;5.65;4.30;;;;;;;27.44;39.82;100373.13;5052126;28;20017;-67
2021/07/23 10:16:05;;;;;;;4.80;4.30;;;;;;;27.48;39.84;100376.53;5033207;28;20025;-65
2021/07/23 10:18:33;;;;;;;6.88;4.97;;;;;;;27.52;40.59;100356.88;5049050;28;20028;-65
2021/07/23 10:20:58;;;;;;;8.95;4.88;;;;;;;27.58;40.04;100354.78;5037716;28;20025;-65
2021/07/23 10:23:25;;;;;;;10.68;4.50;;;;;;;27.61;38.76;100359.50;5037840;28;20083;-65
2021/07/23 10:25:53;;;;;;;7.43;4.10;;;;;;;27.63;39.77;100354.81;5038059;28;20026;-64
2021/07/23 10:28:40;;;;;;;7.00;4.55;;;;;;;27.69;41.75;100346.19;5037546;28;20440;-62
2021/07/23 10:31:17;;;;;;;7.80;4.65;;;;;;;27.77;38.97;100346.44;5037919;28;20036;-64
2021/07/23 10:33:53;;;;;;;11.45;5.05;;;;;;;27.71;39.01;100343.56;5037798;28;20028;-63
2021/07/23 10:36:31;;;;;;;8.30;4.32;;;;;;;27.65;38.23;100342.72;5051547;28;20039;-64
2021/07/23 10:39:05;;;;;;;7.75;4.78;;;;;;;27.62;39.60;100338.00;5056744;28;20017;-66
2021/07/23 10:41:35;;;;;;;5.50;4.43;;;;;;;27.55;40.07;100338.50;5056632;28;20020;-65
2021/07/23 10:44:01;;;;;;;8.45;4.57;;;;;;;27.54;39.19;100331.16;5057779;28;20371;-63
2021/07/23 10:46:47;;;;;;;7.75;4.32;;;;;;;27.64;40.87;100332.50;5057355;28;20029;-66
2021/07/23 10:49:38;;;;;;;7.72;4.40;;;;;;;27.74;38.65;100324.38;5057268;28;20144;-66
2021/07/23 10:52:04;;;;;;;9.85;4.30;;;;;;;27.82;38.35;100326.22;5057351;28;20316;-66
2021/07/23 10:54:34;;;;;;;9.63;4.38;;;;;;;27.92;41.95;100318.84;5057545;28;20024;-66
2021/07/23 10:59:40;;;;;;;6.40;3.60;;;;;;;28.07;37.54;100303.38;5057315;28;20039;-64
2021/07/23 11:02:07;;;;;;;8.25;5.68;;;;;;;28.14;38.81;100309.38;5057057;28;20048;-63
2021/07/23 11:04:33;;;;;;;8.57;5.22;;;;;;;28.22;37.55;100303.88;5057248;28;20028;-67
2021/07/23 11:07:00;;;;;;;8.13;4.57;;;;;;;28.21;39.10;100308.84;5057325;28;20052;-65
2021/07/23 11:09:26;;;;;;;6.47;4.20;;;;;;;28.31;38.46;100307.28;5057145;28;20028;-66
2021/07/23 11:11:52;;;;;;;5.25;3.83;;;;;;;28.35;38.63;100294.66;5057424;28;20093;-62
2021/07/23 11:14:18;;;;;;;6.57;4.75;;;;;;;28.36;39.00;100297.03;5036414;28;20032;-67
2021/07/23 11:16:45;;;;;;;5.28;4.00;;;;;;;28.38;35.97;100294.41;5030615;28;20056;-64
2021/07/23 11:19:22;;;;;;;6.78;4.65;;;;;;;28.41;36.96;100293.34;5025872;28;20030;-62
2021/07/23 11:21:48;;;;;;;7.88;4.28;;;;;;;28.39;36.41;100295.19;5033119;28;20412;-65
2021/07/23 11:24:15;;;;;;;7.90;4.45;;;;;;;28.32;37.07;100290.75;5029032;28;20036;-65